メインページ
METAR-TAF:

METAR-TAF

空港 :

Grande Prairie, アルバータ州, カナダ

緯度: 55-11N, 経度: 118-53W, 海抜: 666m

現時点の気象観測

当レポートは24分前の17:00(UTC)に作成
の風 3kt、北東から東/南東の間で変化する
気温 19°C
湿度 73%
気圧 1020 hPa
視程: 40.2km
高度20000ftの千切れ雲あり

METAR: CYQU 211700Z 09003KT 050V120 25SM BKN200 19/14 A3011 RMK CS5 SLP203 DENSITY ALT 3000FT

時間: 11:24 (17:24 UTC)

予報

当レポートは4時間45分前の12:39(UTC)に作成
予報は21日の 13時(UTC)から 22日の 01時(UTC)まで有効
変向風 3kt
視程: 10km
高度24000ftの雲は散在している
確率 30%
21日の 13時(UTC)から 21日の 15時(UTC)まで
視程: 1.6km
21日の 17時(UTC)から 21日の 19時(UTC)まで徐々に
の風 6kt
高度6000ftの雲はほとんどない
高度24000ftの雲は散在している
21日の 2100時(UTC)から
の風 10kt
視程: 10km
高度8000ftの雲は散在している
高度20000ftの雲は散在している
21日の 21時(UTC)から 22日の 01時(UTC)まで一時的に
視程: 10km
高度8000ftの千切れ雲あり
高度20000ftの千切れ雲あり
弱いにわか雨
確率 30%
21日の 22時(UTC)から 22日の 01時(UTC)まで
変向風 20kt、最大30ktの突風を伴う
視程: 6.4km
高度6000ftの曇り, 積乱雲.
激しい雷雨, 雨

TAF: CYQU 211239Z 2113/2201 VRB03KT P6SM SCT240 PROB30 2113/2115 1SM BR BECMG 2117/2119 10006KT FEW060 SCT240 FM212100 09010KT P6SM SCT080 SCT200 TEMPO 2121/2201 P6SM -SHRA BKN080 BKN200 PROB30 2122/2201 VRB20G30KT 4SM TSRA OVC060CB RMK NXT FCST BY 211900Z

4,000以上の空港の気象観測と天気予報(METAR報とTAF報)

利用可能な観測所は地図上に黄色い丸と赤い丸で示す。

丸の上にカーソルを重ねると観測所名を参照できる。

次にクリックすると気象観測と天気予報を参照できる。

マップの切り替え:黒色「×」印の緑ボタンをクリックして拡大、「-」印の緑ボタンをクリックして縮小、緑色の三角印をクリックして隣りの地図に切り替え


METAR-TAF: